sensor_id;sensor_type;location;lat;lon;timestamp;P1;durP1;ratioP1;P2;durP2;ratioP2
31284;SDS011;56605;51.516;6.742;2022-12-22T00:02:28;26.85;;;13.80;;
31284;SDS011;56605;51.516;6.742;2022-12-22T00:05:16;24.65;;;14.00;;
31284;SDS011;56605;51.516;6.742;2022-12-22T00:08:02;19.95;;;10.90;;
31284;SDS011;56605;51.516;6.742;2022-12-22T00:10:47;15.52;;;9.80;;
31284;SDS011;56605;51.516;6.742;2022-12-22T00:13:31;17.77;;;10.55;;
31284;SDS011;56605;51.516;6.742;2022-12-22T00:16:16;13.30;;;9.10;;
31284;SDS011;56605;51.516;6.742;2022-12-22T00:19:00;15.80;;;9.43;;
31284;SDS011;56605;51.516;6.742;2022-12-22T00:21:44;16.67;;;9.77;;
31284;SDS011;56605;51.516;6.742;2022-12-22T00:24:28;15.93;;;9.43;;
31284;SDS011;56605;51.516;6.742;2022-12-22T00:27:13;16.67;;;9.63;;
31284;SDS011;56605;51.516;6.742;2022-12-22T00:29:59;17.38;;;10.55;;
31284;SDS011;56605;51.516;6.742;2022-12-22T00:32:44;18.27;;;10.40;;
31284;SDS011;56605;51.516;6.742;2022-12-22T00:35:29;15.43;;;9.90;;
31284;SDS011;56605;51.516;6.742;2022-12-22T00:38:17;19.40;;;10.25;;
31284;SDS011;56605;51.516;6.742;2022-12-22T00:41:03;16.00;;;9.80;;
31284;SDS011;56605;51.516;6.742;2022-12-22T00:43:48;21.30;;;11.10;;
31284;SDS011;56605;51.516;6.742;2022-12-22T00:46:32;26.05;;;13.68;;
31284;SDS011;56605;51.516;6.742;2022-12-22T00:49:18;24.55;;;12.85;;
31284;SDS011;56605;51.516;6.742;2022-12-22T00:52:03;24.27;;;13.63;;
31284;SDS011;56605;51.516;6.742;2022-12-22T00:54:47;29.38;;;14.00;;
31284;SDS011;56605;51.516;6.742;2022-12-22T00:57:33;32.55;;;16.67;;
31284;SDS011;56605;51.516;6.742;2022-12-22T01:00:18;43.17;;;20.30;;
31284;SDS011;56605;51.516;6.742;2022-12-22T01:03:02;37.17;;;16.02;;
31284;SDS011;56605;51.516;6.742;2022-12-22T01:05:47;31.13;;;14.85;;
31284;SDS011;56605;51.516;6.742;2022-12-22T01:08:32;26.63;;;13.77;;
31284;SDS011;56605;51.516;6.742;2022-12-22T01:11:17;26.13;;;12.10;;
31284;SDS011;56605;51.516;6.742;2022-12-22T01:14:01;24.25;;;12.65;;
31284;SDS011;56605;51.516;6.742;2022-12-22T01:16:45;26.75;;;12.57;;
31284;SDS011;56605;51.516;6.742;2022-12-22T01:19:29;18.92;;;11.48;;
31284;SDS011;56605;51.516;6.742;2022-12-22T01:22:14;20.70;;;13.15;;
31284;SDS011;56605;51.516;6.742;2022-12-22T01:25:08;17.30;;;10.90;;
31284;SDS011;56605;51.516;6.742;2022-12-22T01:27:53;17.50;;;11.32;;
31284;SDS011;56605;51.516;6.742;2022-12-22T01:30:37;14.95;;;10.70;;
31284;SDS011;56605;51.516;6.742;2022-12-22T01:33:21;17.63;;;9.85;;
31284;SDS011;56605;51.516;6.742;2022-12-22T01:36:05;20.65;;;11.18;;
31284;SDS011;56605;51.516;6.742;2022-12-22T01:38:49;16.30;;;10.93;;
31284;SDS011;56605;51.516;6.742;2022-12-22T01:41:33;19.95;;;10.90;;
31284;SDS011;56605;51.516;6.742;2022-12-22T01:44:17;18.85;;;10.63;;
31284;SDS011;56605;51.516;6.742;2022-12-22T01:50:24;18.80;;;10.38;;
31284;SDS011;56605;51.516;6.742;2022-12-22T01:53:13;19.52;;;11.02;;
31284;SDS011;56605;51.516;6.742;2022-12-22T01:56:00;18.48;;;10.18;;
31284;SDS011;56605;51.516;6.742;2022-12-22T01:58:47;17.33;;;9.70;;
31284;SDS011;56605;51.516;6.742;2022-12-22T02:01:35;15.68;;;9.65;;
31284;SDS011;56605;51.516;6.742;2022-12-22T02:04:21;18.67;;;10.32;;
31284;SDS011;56605;51.516;6.742;2022-12-22T02:07:12;17.83;;;10.50;;
31284;SDS011;56605;51.516;6.742;2022-12-22T02:16:00;16.30;;;9.43;;
31284;SDS011;56605;51.516;6.742;2022-12-22T02:18:56;18.85;;;10.32;;
31284;SDS011;56605;51.516;6.742;2022-12-22T02:21:54;15.23;;;9.65;;
31284;SDS011;56605;51.516;6.742;2022-12-22T02:24:49;18.90;;;9.93;;
31284;SDS011;56605;51.516;6.742;2022-12-22T02:27:37;18.83;;;10.55;;
31284;SDS011;56605;51.516;6.742;2022-12-22T02:30:23;17.30;;;10.80;;
31284;SDS011;56605;51.516;6.742;2022-12-22T02:33:09;19.25;;;10.00;;
31284;SDS011;56605;51.516;6.742;2022-12-22T02:36:02;18.45;;;9.43;;
31284;SDS011;56605;51.516;6.742;2022-12-22T02:45:13;20.42;;;10.20;;
31284;SDS011;56605;51.516;6.742;2022-12-22T02:48:04;15.43;;;8.27;;
31284;SDS011;56605;51.516;6.742;2022-12-22T02:50:54;15.05;;;8.93;;
31284;SDS011;56605;51.516;6.742;2022-12-22T02:53:52;13.95;;;9.00;;
31284;SDS011;56605;51.516;6.742;2022-12-22T02:56:39;15.00;;;8.27;;
31284;SDS011;56605;51.516;6.742;2022-12-22T02:59:24;13.05;;;8.10;;
31284;SDS011;56605;51.516;6.742;2022-12-22T03:02:08;15.40;;;7.85;;
31284;SDS011;56605;51.516;6.742;2022-12-22T03:04:52;14.30;;;8.05;;
31284;SDS011;56605;51.516;6.742;2022-12-22T03:07:36;15.63;;;8.55;;
31284;SDS011;56605;51.516;6.742;2022-12-22T03:10:20;12.93;;;7.53;;
31284;SDS011;56605;51.516;6.742;2022-12-22T03:13:04;15.15;;;8.88;;
31284;SDS011;56605;51.516;6.742;2022-12-22T03:15:48;15.90;;;8.95;;
31284;SDS011;56605;51.516;6.742;2022-12-22T03:18:32;13.68;;;8.15;;
31284;SDS011;56605;51.516;6.742;2022-12-22T03:21:16;18.02;;;9.75;;
31284;SDS011;56605;51.516;6.742;2022-12-22T03:24:00;15.32;;;9.35;;
31284;SDS011;56605;51.516;6.742;2022-12-22T03:26:44;21.42;;;10.48;;
31284;SDS011;56605;51.516;6.742;2022-12-22T03:29:09;17.98;;;9.45;;
31284;SDS011;56605;51.516;6.742;2022-12-22T03:31:35;19.25;;;10.55;;
31284;SDS011;56605;51.516;6.742;2022-12-22T03:34:00;17.88;;;9.57;;
31284;SDS011;56605;51.516;6.742;2022-12-22T03:36:25;14.25;;;7.93;;
31284;SDS011;56605;51.516;6.742;2022-12-22T03:38:50;16.67;;;8.93;;
31284;SDS011;56605;51.516;6.742;2022-12-22T03:41:16;17.83;;;9.48;;
31284;SDS011;56605;51.516;6.742;2022-12-22T03:44:00;14.93;;;8.75;;
31284;SDS011;56605;51.516;6.742;2022-12-22T03:46:44;16.30;;;9.30;;
31284;SDS011;56605;51.516;6.742;2022-12-22T03:49:09;14.85;;;9.13;;
31284;SDS011;56605;51.516;6.742;2022-12-22T03:51:36;17.10;;;8.98;;
31284;SDS011;56605;51.516;6.742;2022-12-22T03:54:04;16.15;;;9.57;;
31284;SDS011;56605;51.516;6.742;2022-12-22T03:56:30;15.05;;;9.15;;
31284;SDS011;56605;51.516;6.742;2022-12-22T03:58:55;19.42;;;8.63;;
31284;SDS011;56605;51.516;6.742;2022-12-22T04:01:21;21.33;;;11.13;;
31284;SDS011;56605;51.516;6.742;2022-12-22T04:03:47;18.98;;;10.15;;
31284;SDS011;56605;51.516;6.742;2022-12-22T04:06:13;23.55;;;11.60;;
31284;SDS011;56605;51.516;6.742;2022-12-22T04:08:39;28.88;;;13.77;;
31284;SDS011;56605;51.516;6.742;2022-12-22T04:11:04;27.20;;;12.95;;
31284;SDS011;56605;51.516;6.742;2022-12-22T04:13:47;22.10;;;11.80;;
31284;SDS011;56605;51.516;6.742;2022-12-22T04:16:13;25.23;;;12.65;;
31284;SDS011;56605;51.516;6.742;2022-12-22T04:18:38;24.20;;;12.20;;
31284;SDS011;56605;51.516;6.742;2022-12-22T04:21:03;26.67;;;12.73;;
31284;SDS011;56605;51.516;6.742;2022-12-22T04:23:29;25.20;;;12.95;;
31284;SDS011;56605;51.516;6.742;2022-12-22T04:25:54;27.92;;;14.23;;
31284;SDS011;56605;51.516;6.742;2022-12-22T04:28:19;32.55;;;14.50;;
31284;SDS011;56605;51.516;6.742;2022-12-22T04:30:47;30.00;;;14.18;;
31284;SDS011;56605;51.516;6.742;2022-12-22T04:33:14;33.70;;;14.07;;
31284;SDS011;56605;51.516;6.742;2022-12-22T04:35:39;32.25;;;15.63;;
31284;SDS011;56605;51.516;6.742;2022-12-22T04:38:04;29.90;;;14.48;;
31284;SDS011;56605;51.516;6.742;2022-12-22T04:40:29;26.98;;;14.02;;
31284;SDS011;56605;51.516;6.742;2022-12-22T04:42:55;23.35;;;13.57;;
31284;SDS011;56605;51.516;6.742;2022-12-22T04:45:20;28.45;;;13.98;;
31284;SDS011;56605;51.516;6.742;2022-12-22T04:47:45;30.30;;;14.68;;
31284;SDS011;56605;51.516;6.742;2022-12-22T04:50:10;29.05;;;14.40;;
31284;SDS011;56605;51.516;6.742;2022-12-22T04:52:36;34.08;;;15.30;;
31284;SDS011;56605;51.516;6.742;2022-12-22T04:55:01;30.83;;;13.45;;
31284;SDS011;56605;51.516;6.742;2022-12-22T04:57:27;38.55;;;16.48;;
31284;SDS011;56605;51.516;6.742;2022-12-22T04:59:52;32.03;;;15.40;;
31284;SDS011;56605;51.516;6.742;2022-12-22T05:02:17;30.13;;;13.90;;
31284;SDS011;56605;51.516;6.742;2022-12-22T05:04:43;30.67;;;15.52;;
31284;SDS011;56605;51.516;6.742;2022-12-22T05:07:08;37.08;;;17.92;;
31284;SDS011;56605;51.516;6.742;2022-12-22T05:09:33;29.80;;;14.10;;
31284;SDS011;56605;51.516;6.742;2022-12-22T05:11:59;32.40;;;15.30;;
31284;SDS011;56605;51.516;6.742;2022-12-22T05:14:24;24.50;;;13.50;;
31284;SDS011;56605;51.516;6.742;2022-12-22T05:16:50;30.90;;;16.10;;
31284;SDS011;56605;51.516;6.742;2022-12-22T05:19:15;35.35;;;16.85;;
31284;SDS011;56605;51.516;6.742;2022-12-22T05:21:41;35.50;;;18.67;;
31284;SDS011;56605;51.516;6.742;2022-12-22T05:24:06;42.63;;;19.50;;
31284;SDS011;56605;51.516;6.742;2022-12-22T05:26:31;37.83;;;18.10;;
31284;SDS011;56605;51.516;6.742;2022-12-22T05:28:57;36.58;;;17.42;;
31284;SDS011;56605;51.516;6.742;2022-12-22T05:31:23;35.45;;;17.50;;
31284;SDS011;56605;51.516;6.742;2022-12-22T05:33:49;35.95;;;16.50;;
31284;SDS011;56605;51.516;6.742;2022-12-22T05:36:15;24.00;;;13.63;;
31284;SDS011;56605;51.516;6.742;2022-12-22T05:38:41;22.50;;;11.80;;
31284;SDS011;56605;51.516;6.742;2022-12-22T05:41:08;22.52;;;13.23;;
31284;SDS011;56605;51.516;6.742;2022-12-22T05:43:33;22.25;;;13.20;;
31284;SDS011;56605;51.516;6.742;2022-12-22T05:46:06;31.42;;;14.35;;
31284;SDS011;56605;51.516;6.742;2022-12-22T05:48:33;25.02;;;13.65;;
31284;SDS011;56605;51.516;6.742;2022-12-22T05:50:59;28.30;;;15.02;;
31284;SDS011;56605;51.516;6.742;2022-12-22T05:53:24;31.35;;;15.43;;
31284;SDS011;56605;51.516;6.742;2022-12-22T05:55:50;29.42;;;16.00;;
31284;SDS011;56605;51.516;6.742;2022-12-22T05:58:16;29.55;;;15.90;;
31284;SDS011;56605;51.516;6.742;2022-12-22T06:00:42;28.98;;;14.93;;
31284;SDS011;56605;51.516;6.742;2022-12-22T06:03:07;27.95;;;15.80;;
31284;SDS011;56605;51.516;6.742;2022-12-22T06:05:32;27.42;;;14.93;;
31284;SDS011;56605;51.516;6.742;2022-12-22T06:07:58;27.70;;;16.38;;
31284;SDS011;56605;51.516;6.742;2022-12-22T06:10:23;31.95;;;17.08;;
31284;SDS011;56605;51.516;6.742;2022-12-22T06:12:49;30.40;;;16.48;;
31284;SDS011;56605;51.516;6.742;2022-12-22T06:15:14;31.40;;;17.65;;
31284;SDS011;56605;51.516;6.742;2022-12-22T06:17:39;31.60;;;18.38;;
31284;SDS011;56605;51.516;6.742;2022-12-22T06:20:05;29.13;;;17.15;;
31284;SDS011;56605;51.516;6.742;2022-12-22T06:22:31;30.98;;;19.23;;
31284;SDS011;56605;51.516;6.742;2022-12-22T06:24:57;35.33;;;19.10;;
31284;SDS011;56605;51.516;6.742;2022-12-22T06:27:22;32.67;;;19.10;;
31284;SDS011;56605;51.516;6.742;2022-12-22T06:29:48;32.80;;;18.90;;
31284;SDS011;56605;51.516;6.742;2022-12-22T06:32:13;33.95;;;18.60;;
31284;SDS011;56605;51.516;6.742;2022-12-22T06:34:38;33.10;;;18.00;;
31284;SDS011;56605;51.516;6.742;2022-12-22T06:37:03;31.33;;;15.27;;
31284;SDS011;56605;51.516;6.742;2022-12-22T06:39:29;33.55;;;16.88;;
31284;SDS011;56605;51.516;6.742;2022-12-22T06:41:54;30.05;;;15.38;;
31284;SDS011;56605;51.516;6.742;2022-12-22T06:44:38;33.60;;;17.02;;
31284;SDS011;56605;51.516;6.742;2022-12-22T06:47:03;35.15;;;16.92;;
31284;SDS011;56605;51.516;6.742;2022-12-22T06:49:28;32.47;;;14.48;;
31284;SDS011;56605;51.516;6.742;2022-12-22T06:51:54;33.47;;;17.17;;
31284;SDS011;56605;51.516;6.742;2022-12-22T06:54:19;31.98;;;16.55;;
31284;SDS011;56605;51.516;6.742;2022-12-22T06:56:44;29.83;;;15.05;;
31284;SDS011;56605;51.516;6.742;2022-12-22T06:59:09;31.55;;;16.60;;
31284;SDS011;56605;51.516;6.742;2022-12-22T07:01:35;32.08;;;16.20;;
31284;SDS011;56605;51.516;6.742;2022-12-22T07:04:00;31.20;;;15.05;;
31284;SDS011;56605;51.516;6.742;2022-12-22T07:06:25;28.55;;;15.32;;
31284;SDS011;56605;51.516;6.742;2022-12-22T07:08:51;32.03;;;14.68;;
31284;SDS011;56605;51.516;6.742;2022-12-22T07:11:16;31.40;;;15.65;;
31284;SDS011;56605;51.516;6.742;2022-12-22T07:13:42;33.45;;;15.80;;
31284;SDS011;56605;51.516;6.742;2022-12-22T07:16:08;35.70;;;15.95;;
31284;SDS011;56605;51.516;6.742;2022-12-22T07:18:35;30.75;;;15.25;;
31284;SDS011;56605;51.516;6.742;2022-12-22T07:21:04;30.33;;;15.65;;
31284;SDS011;56605;51.516;6.742;2022-12-22T07:23:31;34.88;;;16.45;;
31284;SDS011;56605;51.516;6.742;2022-12-22T07:25:57;30.88;;;15.27;;
31284;SDS011;56605;51.516;6.742;2022-12-22T07:28:23;27.98;;;14.52;;
31284;SDS011;56605;51.516;6.742;2022-12-22T07:30:49;30.75;;;15.77;;
31284;SDS011;56605;51.516;6.742;2022-12-22T07:33:15;31.85;;;14.90;;
31284;SDS011;56605;51.516;6.742;2022-12-22T07:35:40;30.88;;;14.32;;
31284;SDS011;56605;51.516;6.742;2022-12-22T07:38:06;30.58;;;14.32;;
31284;SDS011;56605;51.516;6.742;2022-12-22T07:40:31;32.83;;;14.43;;
31284;SDS011;56605;51.516;6.742;2022-12-22T07:42:57;30.00;;;13.35;;
31284;SDS011;56605;51.516;6.742;2022-12-22T07:45:23;30.98;;;13.82;;
31284;SDS011;56605;51.516;6.742;2022-12-22T07:47:49;30.85;;;14.00;;
31284;SDS011;56605;51.516;6.742;2022-12-22T07:50:16;33.15;;;14.75;;
31284;SDS011;56605;51.516;6.742;2022-12-22T07:52:49;34.30;;;13.73;;
31284;SDS011;56605;51.516;6.742;2022-12-22T07:55:17;35.45;;;15.23;;
31284;SDS011;56605;51.516;6.742;2022-12-22T07:57:43;37.47;;;14.35;;
31284;SDS011;56605;51.516;6.742;2022-12-22T08:00:09;39.83;;;15.07;;
31284;SDS011;56605;51.516;6.742;2022-12-22T08:02:35;36.63;;;13.85;;
31284;SDS011;56605;51.516;6.742;2022-12-22T08:05:01;39.45;;;14.73;;
31284;SDS011;56605;51.516;6.742;2022-12-22T08:07:26;40.65;;;15.82;;
31284;SDS011;56605;51.516;6.742;2022-12-22T08:09:51;43.30;;;16.65;;
31284;SDS011;56605;51.516;6.742;2022-12-22T08:12:17;41.53;;;14.75;;
31284;SDS011;56605;51.516;6.742;2022-12-22T08:14:42;48.88;;;15.20;;
31284;SDS011;56605;51.516;6.742;2022-12-22T08:17:10;45.97;;;14.60;;
31284;SDS011;56605;51.516;6.742;2022-12-22T08:19:36;50.80;;;16.10;;
31284;SDS011;56605;51.516;6.742;2022-12-22T08:22:01;52.60;;;14.77;;
31284;SDS011;56605;51.516;6.742;2022-12-22T08:24:26;50.10;;;15.85;;
31284;SDS011;56605;51.516;6.742;2022-12-22T08:26:52;49.90;;;15.80;;
31284;SDS011;56605;51.516;6.742;2022-12-22T08:29:23;49.30;;;16.75;;
31284;SDS011;56605;51.516;6.742;2022-12-22T08:31:52;57.13;;;16.58;;
31284;SDS011;56605;51.516;6.742;2022-12-22T08:34:19;48.45;;;15.40;;
31284;SDS011;56605;51.516;6.742;2022-12-22T08:36:45;57.90;;;17.48;;
31284;SDS011;56605;51.516;6.742;2022-12-22T08:39:13;50.75;;;15.32;;
31284;SDS011;56605;51.516;6.742;2022-12-22T08:41:40;56.05;;;16.88;;
31284;SDS011;56605;51.516;6.742;2022-12-22T08:44:14;50.90;;;15.40;;
31284;SDS011;56605;51.516;6.742;2022-12-22T08:46:41;54.00;;;17.55;;
31284;SDS011;56605;51.516;6.742;2022-12-22T08:49:06;53.78;;;17.58;;
31284;SDS011;56605;51.516;6.742;2022-12-22T08:51:31;49.10;;;16.73;;
31284;SDS011;56605;51.516;6.742;2022-12-22T08:53:57;50.85;;;17.33;;
31284;SDS011;56605;51.516;6.742;2022-12-22T08:56:22;52.20;;;16.42;;
31284;SDS011;56605;51.516;6.742;2022-12-22T08:58:47;50.05;;;16.13;;
31284;SDS011;56605;51.516;6.742;2022-12-22T09:01:19;55.33;;;18.27;;
31284;SDS011;56605;51.516;6.742;2022-12-22T09:03:46;56.45;;;17.65;;
31284;SDS011;56605;51.516;6.742;2022-12-22T09:06:16;51.03;;;16.90;;
31284;SDS011;56605;51.516;6.742;2022-12-22T09:08:43;57.63;;;18.25;;
31284;SDS011;56605;51.516;6.742;2022-12-22T09:11:08;58.67;;;18.90;;
31284;SDS011;56605;51.516;6.742;2022-12-22T09:13:33;63.03;;;18.02;;
31284;SDS011;56605;51.516;6.742;2022-12-22T09:15:58;54.20;;;18.10;;
31284;SDS011;56605;51.516;6.742;2022-12-22T09:18:24;49.38;;;16.92;;
31284;SDS011;56605;51.516;6.742;2022-12-22T09:20:55;51.92;;;17.20;;
31284;SDS011;56605;51.516;6.742;2022-12-22T09:23:21;50.22;;;16.02;;
31284;SDS011;56605;51.516;6.742;2022-12-22T09:25:46;37.47;;;14.70;;
31284;SDS011;56605;51.516;6.742;2022-12-22T09:28:11;39.97;;;15.98;;
31284;SDS011;56605;51.516;6.742;2022-12-22T09:30:37;41.35;;;14.68;;
31284;SDS011;56605;51.516;6.742;2022-12-22T09:33:02;42.17;;;15.23;;
31284;SDS011;56605;51.516;6.742;2022-12-22T09:35:27;43.42;;;16.33;;
31284;SDS011;56605;51.516;6.742;2022-12-22T09:37:53;43.45;;;16.52;;
31284;SDS011;56605;51.516;6.742;2022-12-22T09:40:18;47.95;;;17.70;;
31284;SDS011;56605;51.516;6.742;2022-12-22T09:42:45;43.30;;;16.73;;
31284;SDS011;56605;51.516;6.742;2022-12-22T09:45:14;36.40;;;14.30;;
31284;SDS011;56605;51.516;6.742;2022-12-22T09:47:44;46.65;;;14.93;;
31284;SDS011;56605;51.516;6.742;2022-12-22T09:50:17;41.78;;;16.35;;
31284;SDS011;56605;51.516;6.742;2022-12-22T09:52:50;43.85;;;16.58;;
31284;SDS011;56605;51.516;6.742;2022-12-22T09:57:47;46.72;;;15.38;;
31284;SDS011;56605;51.516;6.742;2022-12-22T10:00:13;42.90;;;16.92;;
31284;SDS011;56605;51.516;6.742;2022-12-22T10:05:30;42.60;;;17.08;;
31284;SDS011;56605;51.516;6.742;2022-12-22T10:08:10;43.30;;;15.88;;
31284;SDS011;56605;51.516;6.742;2022-12-22T10:10:37;46.53;;;17.15;;
31284;SDS011;56605;51.516;6.742;2022-12-22T10:13:03;42.33;;;16.17;;
31284;SDS011;56605;51.516;6.742;2022-12-22T10:15:36;42.65;;;15.32;;
31284;SDS011;56605;51.516;6.742;2022-12-22T10:18:23;43.63;;;16.98;;
31284;SDS011;56605;51.516;6.742;2022-12-22T10:21:08;49.10;;;18.88;;
31284;SDS011;56605;51.516;6.742;2022-12-22T10:23:39;50.80;;;17.13;;
31284;SDS011;56605;51.516;6.742;2022-12-22T10:26:09;48.70;;;16.48;;
31284;SDS011;56605;51.516;6.742;2022-12-22T10:28:39;52.38;;;18.30;;
31284;SDS011;56605;51.516;6.742;2022-12-22T10:31:16;55.63;;;16.35;;
31284;SDS011;56605;51.516;6.742;2022-12-22T10:33:44;54.80;;;17.67;;
31284;SDS011;56605;51.516;6.742;2022-12-22T10:36:12;53.78;;;16.77;;
31284;SDS011;56605;51.516;6.742;2022-12-22T10:38:51;54.70;;;18.25;;
31284;SDS011;56605;51.516;6.742;2022-12-22T10:41:20;43.58;;;16.23;;
31284;SDS011;56605;51.516;6.742;2022-12-22T10:43:52;42.88;;;16.92;;
31284;SDS011;56605;51.516;6.742;2022-12-22T10:46:30;40.47;;;17.05;;
31284;SDS011;56605;51.516;6.742;2022-12-22T10:51:55;43.50;;;16.75;;
31284;SDS011;56605;51.516;6.742;2022-12-22T10:54:34;42.95;;;16.13;;
31284;SDS011;56605;51.516;6.742;2022-12-22T10:59:56;35.35;;;14.48;;
31284;SDS011;56605;51.516;6.742;2022-12-22T11:02:27;33.88;;;15.13;;
31284;SDS011;56605;51.516;6.742;2022-12-22T11:04:53;31.95;;;14.85;;
31284;SDS011;56605;51.516;6.742;2022-12-22T11:07:24;29.98;;;14.43;;
31284;SDS011;56605;51.516;6.742;2022-12-22T11:09:49;26.02;;;13.38;;
31284;SDS011;56605;51.516;6.742;2022-12-22T11:12:31;28.45;;;14.15;;
31284;SDS011;56605;51.516;6.742;2022-12-22T11:27:45;27.92;;;12.07;;
31284;SDS011;56605;51.516;6.742;2022-12-22T11:44:06;24.58;;;10.15;;
31284;SDS011;56605;51.516;6.742;2022-12-22T11:46:52;21.60;;;10.32;;
31284;SDS011;56605;51.516;6.742;2022-12-22T11:55:00;28.23;;;11.20;;
31284;SDS011;56605;51.516;6.742;2022-12-22T11:57:53;27.15;;;11.75;;
31284;SDS011;56605;51.516;6.742;2022-12-22T12:00:20;24.27;;;11.60;;
31284;SDS011;56605;51.516;6.742;2022-12-22T12:08:52;28.92;;;11.93;;
31284;SDS011;56605;51.516;6.742;2022-12-22T12:11:29;23.95;;;11.52;;
31284;SDS011;56605;51.516;6.742;2022-12-22T12:19:54;24.80;;;11.88;;
31284;SDS011;56605;51.516;6.742;2022-12-22T12:22:45;31.70;;;11.65;;
31284;SDS011;56605;51.516;6.742;2022-12-22T12:25:37;31.80;;;13.13;;
31284;SDS011;56605;51.516;6.742;2022-12-22T12:28:24;26.63;;;11.45;;
31284;SDS011;56605;51.516;6.742;2022-12-22T12:31:00;22.98;;;9.55;;
31284;SDS011;56605;51.516;6.742;2022-12-22T12:36:13;17.63;;;9.10;;
31284;SDS011;56605;51.516;6.742;2022-12-22T12:44:17;20.83;;;10.00;;
31284;SDS011;56605;51.516;6.742;2022-12-22T12:52:08;18.88;;;9.77;;
31284;SDS011;56605;51.516;6.742;2022-12-22T12:54:41;18.88;;;9.55;;
31284;SDS011;56605;51.516;6.742;2022-12-22T12:59:56;23.23;;;13.10;;
31284;SDS011;56605;51.516;6.742;2022-12-22T13:16:33;27.20;;;14.25;;
31284;SDS011;56605;51.516;6.742;2022-12-22T13:21:01;26.08;;;13.43;;
31284;SDS011;56605;51.516;6.742;2022-12-22T13:23:33;26.55;;;14.23;;
31284;SDS011;56605;51.516;6.742;2022-12-22T13:26:11;22.80;;;13.73;;
31284;SDS011;56605;51.516;6.742;2022-12-22T13:28:40;25.08;;;14.60;;
31284;SDS011;56605;51.516;6.742;2022-12-22T13:33:45;20.77;;;12.15;;
31284;SDS011;56605;51.516;6.742;2022-12-22T13:36:19;18.83;;;11.60;;
31284;SDS011;56605;51.516;6.742;2022-12-22T13:39:03;18.60;;;10.27;;
31284;SDS011;56605;51.516;6.742;2022-12-22T13:41:30;21.90;;;10.30;;
31284;SDS011;56605;51.516;6.742;2022-12-22T13:43:59;19.35;;;11.27;;
31284;SDS011;56605;51.516;6.742;2022-12-22T13:46:31;18.65;;;10.65;;
31284;SDS011;56605;51.516;6.742;2022-12-22T13:48:59;19.42;;;11.45;;
31284;SDS011;56605;51.516;6.742;2022-12-22T13:51:27;17.80;;;10.90;;
31284;SDS011;56605;51.516;6.742;2022-12-22T13:54:00;23.35;;;11.32;;
31284;SDS011;56605;51.516;6.742;2022-12-22T13:59:03;20.85;;;10.15;;
31284;SDS011;56605;51.516;6.742;2022-12-22T14:01:47;18.27;;;10.50;;
31284;SDS011;56605;51.516;6.742;2022-12-22T14:04:20;16.13;;;9.98;;
31284;SDS011;56605;51.516;6.742;2022-12-22T14:06:47;21.17;;;10.52;;
31284;SDS011;56605;51.516;6.742;2022-12-22T14:14:35;20.52;;;11.00;;
31284;SDS011;56605;51.516;6.742;2022-12-22T14:17:03;20.15;;;10.50;;
31284;SDS011;56605;51.516;6.742;2022-12-22T14:19:37;18.60;;;9.40;;
31284;SDS011;56605;51.516;6.742;2022-12-22T14:24:39;17.40;;;9.27;;
31284;SDS011;56605;51.516;6.742;2022-12-22T14:27:12;14.90;;;8.40;;
31284;SDS011;56605;51.516;6.742;2022-12-22T14:29:43;14.55;;;8.82;;
31284;SDS011;56605;51.516;6.742;2022-12-22T14:32:09;14.93;;;8.23;;
31284;SDS011;56605;51.516;6.742;2022-12-22T14:34:55;14.13;;;8.10;;
31284;SDS011;56605;51.516;6.742;2022-12-22T14:37:22;20.40;;;9.35;;
31284;SDS011;56605;51.516;6.742;2022-12-22T14:39:53;16.27;;;8.35;;
31284;SDS011;56605;51.516;6.742;2022-12-22T14:42:19;16.92;;;8.73;;
31284;SDS011;56605;51.516;6.742;2022-12-22T14:44:45;15.80;;;8.80;;
31284;SDS011;56605;51.516;6.742;2022-12-22T14:49:42;17.83;;;9.20;;
31284;SDS011;56605;51.516;6.742;2022-12-22T14:52:15;16.33;;;9.48;;
31284;SDS011;56605;51.516;6.742;2022-12-22T14:54:47;19.70;;;8.45;;
31284;SDS011;56605;51.516;6.742;2022-12-22T14:57:16;17.65;;;9.30;;
31284;SDS011;56605;51.516;6.742;2022-12-22T14:59:58;24.55;;;9.45;;
31284;SDS011;56605;51.516;6.742;2022-12-22T15:02:27;15.90;;;9.13;;
31284;SDS011;56605;51.516;6.742;2022-12-22T15:05:08;21.15;;;10.13;;
31284;SDS011;56605;51.516;6.742;2022-12-22T15:07:42;24.52;;;11.45;;
31284;SDS011;56605;51.516;6.742;2022-12-22T15:10:12;21.27;;;10.98;;
31284;SDS011;56605;51.516;6.742;2022-12-22T15:12:37;21.75;;;11.57;;
31284;SDS011;56605;51.516;6.742;2022-12-22T15:15:03;21.30;;;11.48;;
31284;SDS011;56605;51.516;6.742;2022-12-22T15:17:36;19.33;;;10.65;;
31284;SDS011;56605;51.516;6.742;2022-12-22T15:20:01;23.13;;;10.98;;
31284;SDS011;56605;51.516;6.742;2022-12-22T15:22:28;20.42;;;11.73;;
31284;SDS011;56605;51.516;6.742;2022-12-22T15:24:53;24.38;;;11.25;;
31284;SDS011;56605;51.516;6.742;2022-12-22T15:27:19;20.05;;;11.07;;
31284;SDS011;56605;51.516;6.742;2022-12-22T15:29:44;22.05;;;10.02;;
31284;SDS011;56605;51.516;6.742;2022-12-22T15:32:10;16.77;;;10.50;;
31284;SDS011;56605;51.516;6.742;2022-12-22T15:34:36;20.10;;;10.10;;
31284;SDS011;56605;51.516;6.742;2022-12-22T15:37:02;16.67;;;8.98;;
31284;SDS011;56605;51.516;6.742;2022-12-22T15:39:27;12.93;;;7.93;;
31284;SDS011;56605;51.516;6.742;2022-12-22T15:41:52;13.02;;;8.65;;
31284;SDS011;56605;51.516;6.742;2022-12-22T15:44:18;12.38;;;7.88;;
31284;SDS011;56605;51.516;6.742;2022-12-22T15:46:46;10.82;;;6.57;;
31284;SDS011;56605;51.516;6.742;2022-12-22T15:49:18;10.20;;;6.53;;
31284;SDS011;56605;51.516;6.742;2022-12-22T15:51:46;10.75;;;6.78;;
31284;SDS011;56605;51.516;6.742;2022-12-22T15:54:17;12.50;;;7.65;;
31284;SDS011;56605;51.516;6.742;2022-12-22T15:56:43;13.20;;;8.40;;
31284;SDS011;56605;51.516;6.742;2022-12-22T15:59:11;16.60;;;8.27;;
31284;SDS011;56605;51.516;6.742;2022-12-22T16:01:40;15.80;;;9.73;;
31284;SDS011;56605;51.516;6.742;2022-12-22T16:04:05;17.08;;;9.98;;
31284;SDS011;56605;51.516;6.742;2022-12-22T16:06:30;21.05;;;10.02;;
31284;SDS011;56605;51.516;6.742;2022-12-22T16:08:56;23.70;;;12.07;;
31284;SDS011;56605;51.516;6.742;2022-12-22T16:11:21;26.05;;;12.15;;
31284;SDS011;56605;51.516;6.742;2022-12-22T16:13:46;30.05;;;15.63;;
31284;SDS011;56605;51.516;6.742;2022-12-22T16:16:14;30.25;;;14.02;;
31284;SDS011;56605;51.516;6.742;2022-12-22T16:18:39;30.00;;;15.38;;
31284;SDS011;56605;51.516;6.742;2022-12-22T16:21:15;26.92;;;15.82;;
31284;SDS011;56605;51.516;6.742;2022-12-22T16:23:43;30.08;;;15.30;;
31284;SDS011;56605;51.516;6.742;2022-12-22T16:26:20;28.13;;;16.23;;
31284;SDS011;56605;51.516;6.742;2022-12-22T16:28:46;40.60;;;20.58;;
31284;SDS011;56605;51.516;6.742;2022-12-22T16:31:15;31.42;;;16.73;;
31284;SDS011;56605;51.516;6.742;2022-12-22T16:33:45;24.95;;;14.35;;
31284;SDS011;56605;51.516;6.742;2022-12-22T16:36:10;28.65;;;14.20;;
31284;SDS011;56605;51.516;6.742;2022-12-22T16:38:36;30.55;;;15.82;;
31284;SDS011;56605;51.516;6.742;2022-12-22T16:41:01;33.60;;;17.63;;
31284;SDS011;56605;51.516;6.742;2022-12-22T16:43:34;28.10;;;13.93;;
31284;SDS011;56605;51.516;6.742;2022-12-22T16:46:03;24.42;;;14.10;;
31284;SDS011;56605;51.516;6.742;2022-12-22T16:48:40;23.95;;;14.00;;
31284;SDS011;56605;51.516;6.742;2022-12-22T16:51:13;25.02;;;13.63;;